Jay, New York
Current Conditions -  °F | °C
As of 7:38 AM on Sunday 23 Nov 2014 (Local Time) from KSLK Reporting Station
Haze Haze  
Wind Chill: 34°   Ceiling: 300
Heat Index: 39°   Visibility: 1.7mi
Dew Point: 38°   Wind: 7mph
Humidity: 96%   Direction: 230°SW
Pressure: 29.99"   Gusts: NA
Location:  44.37°N, 73.73°W
Report Text: KSLK 231238Z AUTO 23006KT 1 3/4SM BR OVC003 04/03 A2999 RMK AO2 SNB1152E16 P0000 T00390033
Loading
Personal Weather Stations






























Interactive Weather Map New forecast layout! Learn more

10-Day Weather Forecast

Advertisements
Track Severe Weather on mobile